Time;durP1;ratioP1;P1;durP2;ratioP2;P2;SDS_P1;SDS_P2;PMS_P1;PMS_P2;Temp;Humidity;BMP_temperature;BMP_pressure;BME280_temperature;BME280_humidity;BME280_pressure;Samples;Min_cycle;Max_cycle;Signal;HPM_P1;HPM_P2
2022/08/01 00:02:17;;;;;;;3.85;1.45;;;;;;;;;;5074963;28;20037;-74
2022/08/01 00:04:43;;;;;;;3.38;1.08;;;;;;;;;;5070080;28;20434;-74
2022/08/01 00:07:10;;;;;;;2.47;1.00;;;;;;;;;;5069047;28;20032;-74
2022/08/01 00:09:36;;;;;;;4.45;1.30;;;;;;;;;;5074165;28;20393;-74
2022/08/01 00:12:02;;;;;;;3.13;1.10;;;;;;;;;;5068687;28;20032;-74
2022/08/01 00:14:28;;;;;;;4.07;0.90;;;;;;;;;;5073999;28;20059;-74
2022/08/01 00:16:54;;;;;;;3.70;0.90;;;;;;;;;;5072614;28;20102;-74
2022/08/01 00:19:20;;;;;;;3.33;0.85;;;;;;;;;;5075189;28;20032;-74
2022/08/01 00:21:46;;;;;;;3.35;1.00;;;;;;;;;;5071857;28;20462;-74
2022/08/01 00:24:12;;;;;;;1.80;1.00;;;;;;;;;;5074952;28;20424;-74
2022/08/01 00:26:38;;;;;;;3.65;0.98;;;;;;;;;;5072493;28;20028;-74
2022/08/01 00:29:04;;;;;;;2.78;0.90;;;;;;;;;;5074761;28;20107;-74
2022/08/01 00:31:30;;;;;;;4.20;1.35;;;;;;;;;;5072110;28;20504;-74
2022/08/01 00:33:56;;;;;;;4.45;1.02;;;;;;;;;;5073175;28;20123;-74
2022/08/01 00:36:22;;;;;;;2.47;0.90;;;;;;;;;;5075806;28;20112;-74
2022/08/01 00:38:48;;;;;;;3.30;0.90;;;;;;;;;;5071523;28;20029;-74
2022/08/01 00:41:14;;;;;;;2.53;1.13;;;;;;;;;;5074714;28;20404;-74
2022/08/01 00:43:40;;;;;;;3.60;1.15;;;;;;;;;;5074804;28;20040;-74
2022/08/01 00:46:06;;;;;;;3.38;1.10;;;;;;;;;;5072945;28;20032;-74
2022/08/01 00:48:32;;;;;;;2.97;0.93;;;;;;;;;;5071407;28;20115;-74
2022/08/01 00:50:58;;;;;;;2.55;1.00;;;;;;;;;;5071511;28;21814;-74
2022/08/01 00:53:25;;;;;;;3.70;1.13;;;;;;;;;;5072586;28;20039;-74
2022/08/01 00:55:51;;;;;;;4.25;1.42;;;;;;;;;;5075318;28;20087;-74
2022/08/01 00:58:17;;;;;;;4.05;1.20;;;;;;;;;;5067931;28;20390;-74
2022/08/01 01:00:43;;;;;;;2.17;0.80;;;;;;;;;;5070990;28;20264;-74
2022/08/01 01:03:09;;;;;;;4.28;1.20;;;;;;;;;;5074590;28;20339;-74
2022/08/01 01:05:40;;;;;;;2.83;1.20;;;;;;;;;;5075204;28;20069;-74
2022/08/01 01:08:14;;;;;;;4.40;0.98;;;;;;;;;;5069803;28;20020;-74
2022/08/01 01:10:43;;;;;;;3.80;1.20;;;;;;;;;;5074465;28;20094;-73
2022/08/01 01:13:18;;;;;;;2.92;1.02;;;;;;;;;;5074857;28;20024;-74
2022/08/01 01:15:47;;;;;;;2.45;1.25;;;;;;;;;;5076050;28;20036;-74
2022/08/01 01:18:27;;;;;;;2.22;0.90;;;;;;;;;;5075218;28;20429;-74
2022/08/01 01:21:12;;;;;;;4.72;0.98;;;;;;;;;;5069848;28;20474;-74
2022/08/01 01:24:00;;;;;;;2.17;0.98;;;;;;;;;;5072524;28;20071;-74
2022/08/01 01:26:45;;;;;;;3.00;1.10;;;;;;;;;;5069926;28;20063;-74
2022/08/01 01:29:14;;;;;;;1.92;1.10;;;;;;;;;;5072557;28;20572;-74
2022/08/01 01:31:43;;;;;;;3.45;1.02;;;;;;;;;;5069947;28;20402;-74
2022/08/01 01:34:11;;;;;;;3.65;0.90;;;;;;;;;;5069640;28;20059;-74
2022/08/01 01:36:38;;;;;;;4.85;1.00;;;;;;;;;;5073125;28;20473;-74
2022/08/01 01:39:04;;;;;;;5.72;1.30;;;;;;;;;;5068453;28;20071;-74
2022/08/01 01:41:30;;;;;;;2.90;1.10;;;;;;;;;;5070517;28;20061;-74
2022/08/01 01:43:57;;;;;;;2.45;1.00;;;;;;;;;;5073863;28;20028;-74
2022/08/01 01:46:24;;;;;;;3.83;1.38;;;;;;;;;;5069687;28;20087;-74
2022/08/01 01:48:50;;;;;;;2.45;0.88;;;;;;;;;;5073356;28;20058;-74
2022/08/01 01:51:17;;;;;;;3.38;1.00;;;;;;;;;;5073209;28;20401;-74
2022/08/01 01:53:44;;;;;;;2.72;0.90;;;;;;;;;;5075605;28;20433;-74
2022/08/01 01:56:11;;;;;;;2.72;1.10;;;;;;;;;;5068703;28;20032;-74
2022/08/01 01:58:39;;;;;;;2.72;1.10;;;;;;;;;;5071194;28;20437;-74
2022/08/01 02:01:06;;;;;;;4.40;1.17;;;;;;;;;;5072305;28;20021;-74
2022/08/01 02:03:36;;;;;;;3.03;1.02;;;;;;;;;;5071437;28;20036;-74
2022/08/01 02:06:02;;;;;;;3.85;1.65;;;;;;;;;;5069263;28;20424;-74
2022/08/01 02:08:29;;;;;;;4.13;1.20;;;;;;;;;;5069291;28;20024;-74
2022/08/01 02:13:42;;;;;;;4.85;1.17;;;;;;;;;;5072654;28;20175;-73
2022/08/01 02:16:11;;;;;;;4.70;1.50;;;;;;;;;;5073065;28;20067;-73
2022/08/01 02:18:38;;;;;;;4.43;1.23;;;;;;;;;;5071999;28;20419;-73
2022/08/01 02:21:06;;;;;;;2.67;1.10;;;;;;;;;;5068858;28;20036;-73
2022/08/01 02:23:37;;;;;;;6.63;1.42;;;;;;;;;;5074546;28;20044;-74
2022/08/01 02:26:05;;;;;;;4.10;1.43;;;;;;;;;;5068618;28;20489;-74
2022/08/01 02:28:33;;;;;;;4.75;1.17;;;;;;;;;;5072464;28;20074;-74
2022/08/01 02:31:09;;;;;;;4.28;1.30;;;;;;;;;;5069150;28;20036;-73
2022/08/01 02:33:39;;;;;;;2.58;0.90;;;;;;;;;;5068178;28;20038;-74
2022/08/01 02:36:07;;;;;;;3.85;1.40;;;;;;;;;;5069938;28;20111;-74
2022/08/01 02:38:34;;;;;;;5.03;0.93;;;;;;;;;;5074244;28;20285;-74
2022/08/01 02:41:04;;;;;;;3.28;1.45;;;;;;;;;;5072028;28;20059;-74
2022/08/01 02:43:31;;;;;;;4.82;1.27;;;;;;;;;;5070082;28;20133;-74
2022/08/01 02:46:00;;;;;;;2.20;1.15;;;;;;;;;;5071472;28;20495;-74
2022/08/01 02:48:27;;;;;;;6.40;1.55;;;;;;;;;;5068438;28;20036;-74
2022/08/01 02:50:55;;;;;;;3.42;1.20;;;;;;;;;;5072996;28;20370;-73
2022/08/01 02:53:23;;;;;;;2.83;1.20;;;;;;;;;;5071059;28;20040;-73
2022/08/01 02:55:50;;;;;;;4.65;1.45;;;;;;;;;;5069287;28;20563;-73
2022/08/01 02:58:17;;;;;;;6.45;1.55;;;;;;;;;;5073826;28;20033;-73
2022/08/01 03:00:45;;;;;;;4.35;1.20;;;;;;;;;;5068436;28;20525;-73
2022/08/01 03:03:11;;;;;;;4.50;1.48;;;;;;;;;;5072384;28;20072;-73
2022/08/01 03:05:39;;;;;;;3.17;1.13;;;;;;;;;;5065618;28;20062;-73
2022/08/01 03:08:06;;;;;;;3.00;1.08;;;;;;;;;;5070263;28;20082;-73
2022/08/01 03:10:33;;;;;;;5.35;1.55;;;;;;;;;;5071291;28;20129;-73
2022/08/01 03:13:00;;;;;;;2.88;1.05;;;;;;;;;;5070554;28;20591;-73
2022/08/01 03:15:28;;;;;;;2.50;1.20;;;;;;;;;;5068290;28;20031;-73
2022/08/01 03:17:55;;;;;;;1.95;1.00;;;;;;;;;;5068174;28;20062;-73
2022/08/01 03:20:24;;;;;;;3.88;1.30;;;;;;;;;;5070840;28;20032;-73
2022/08/01 03:22:52;;;;;;;3.00;1.08;;;;;;;;;;5068193;28;20062;-73
2022/08/01 03:25:18;;;;;;;4.47;1.27;;;;;;;;;;5071366;28;20457;-73
2022/08/01 03:27:46;;;;;;;2.10;1.20;;;;;;;;;;5064150;28;20020;-73
2022/08/01 03:30:12;;;;;;;4.63;0.90;;;;;;;;;;5072555;28;20037;-73
2022/08/01 03:32:38;;;;;;;2.75;1.13;;;;;;;;;;5071607;28;20070;-73
2022/08/01 03:35:05;;;;;;;2.40;1.15;;;;;;;;;;5070059;28;20404;-73
2022/08/01 03:37:44;;;;;;;4.82;1.13;;;;;;;;;;5069802;28;20032;-73
2022/08/01 03:40:25;;;;;;;2.15;1.27;;;;;;;;;;5071649;28;20377;-73
2022/08/01 03:42:54;;;;;;;2.92;1.10;;;;;;;;;;5070072;28;20147;-73
2022/08/01 03:45:23;;;;;;;2.50;1.05;;;;;;;;;;5067700;28;20055;-73
2022/08/01 03:47:50;;;;;;;3.58;1.20;;;;;;;;;;5075788;28;20139;-73
2022/08/01 03:50:17;;;;;;;2.83;1.20;;;;;;;;;;5074555;28;20036;-73
2022/08/01 03:52:45;;;;;;;3.35;1.10;;;;;;;;;;5072803;28;20024;-74
2022/08/01 03:55:12;;;;;;;5.68;1.15;;;;;;;;;;5072612;28;20477;-74
2022/08/01 03:57:39;;;;;;;2.22;1.10;;;;;;;;;;5076922;28;20046;-74
2022/08/01 04:00:09;;;;;;;4.10;1.60;;;;;;;;;;5070333;28;20043;-73
2022/08/01 04:02:35;;;;;;;4.75;1.55;;;;;;;;;;5073398;28;20378;-74
2022/08/01 04:05:02;;;;;;;3.80;1.10;;;;;;;;;;5071335;28;20029;-74
2022/08/01 04:07:29;;;;;;;3.42;1.40;;;;;;;;;;5076160;28;20269;-74
2022/08/01 04:09:55;;;;;;;3.13;1.38;;;;;;;;;;5073289;28;20032;-73
2022/08/01 04:12:21;;;;;;;2.65;1.10;;;;;;;;;;5073893;28;20078;-73
2022/08/01 04:14:48;;;;;;;3.22;1.30;;;;;;;;;;5078842;28;20405;-73
2022/08/01 04:17:14;;;;;;;5.78;1.60;;;;;;;;;;5074096;28;20032;-73
2022/08/01 04:19:41;;;;;;;5.20;1.33;;;;;;;;;;5073820;28;20044;-73
2022/08/01 04:22:07;;;;;;;3.83;1.50;;;;;;;;;;5075963;28;20064;-73
2022/08/01 04:24:35;;;;;;;6.68;1.75;;;;;;;;;;5075668;28;20496;-73
2022/08/01 04:27:01;;;;;;;5.40;1.67;;;;;;;;;;5076004;28;20020;-73
2022/08/01 04:29:28;;;;;;;7.78;2.22;;;;;;;;;;5071518;28;20051;-73
2022/08/01 04:31:56;;;;;;;3.72;1.60;;;;;;;;;;5074025;28;20579;-75
2022/08/01 04:34:24;;;;;;;5.13;1.60;;;;;;;;;;5073055;28;20047;-75
2022/08/01 04:36:51;;;;;;;4.50;1.25;;;;;;;;;;5072119;28;20587;-73
2022/08/01 04:39:18;;;;;;;6.40;1.70;;;;;;;;;;5073499;28;20040;-73
2022/08/01 04:41:46;;;;;;;6.50;1.60;;;;;;;;;;5072942;28;20048;-73
2022/08/01 04:44:13;;;;;;;4.65;1.80;;;;;;;;;;5072988;28;20020;-73
2022/08/01 04:46:39;;;;;;;5.85;2.00;;;;;;;;;;5072935;28;20039;-73
2022/08/01 04:49:07;;;;;;;7.82;2.03;;;;;;;;;;5071573;28;20027;-73
2022/08/01 04:51:33;;;;;;;6.82;1.70;;;;;;;;;;5074123;28;20044;-73
2022/08/01 04:54:00;;;;;;;5.68;1.52;;;;;;;;;;5070149;28;20339;-73
2022/08/01 04:56:27;;;;;;;5.00;1.55;;;;;;;;;;5075143;28;20067;-73
2022/08/01 05:01:38;;;;;;;6.82;2.03;;;;;;;;;;5074446;28;20440;-73
2022/08/01 05:04:04;;;;;;;3.70;1.80;;;;;;;;;;5074340;28;20032;-73
2022/08/01 05:06:30;;;;;;;6.07;1.92;;;;;;;;;;5070999;28;20128;-73
2022/08/01 05:08:56;;;;;;;4.53;1.60;;;;;;;;;;5073022;28;20512;-73
2022/08/01 05:11:22;;;;;;;4.75;1.77;;;;;;;;;;5071587;28;20039;-73
2022/08/01 05:13:48;;;;;;;7.55;2.00;;;;;;;;;;5073386;28;20045;-73
2022/08/01 05:16:14;;;;;;;4.55;1.60;;;;;;;;;;5072602;28;20028;-73
2022/08/01 05:18:41;;;;;;;7.68;1.40;;;;;;;;;;5069425;28;20104;-73
2022/08/01 05:21:07;;;;;;;5.85;1.67;;;;;;;;;;5070286;28;20028;-73
2022/08/01 05:23:33;;;;;;;5.63;1.65;;;;;;;;;;5068997;28;20036;-73
2022/08/01 05:25:59;;;;;;;10.00;1.90;;;;;;;;;;5071774;28;20031;-73
2022/08/01 05:28:25;;;;;;;6.93;1.50;;;;;;;;;;5072059;28;20405;-73
2022/08/01 05:30:54;;;;;;;4.30;1.30;;;;;;;;;;5071600;28;20043;-73
2022/08/01 05:33:21;;;;;;;3.88;1.58;;;;;;;;;;5069941;28;20035;-73
2022/08/01 05:35:47;;;;;;;6.05;1.70;;;;;;;;;;5074815;28;20046;-73
2022/08/01 05:38:13;;;;;;;2.92;1.25;;;;;;;;;;5069069;28;20218;-73
2022/08/01 05:40:39;;;;;;;4.18;1.60;;;;;;;;;;5071686;28;20155;-73
2022/08/01 05:43:05;;;;;;;6.07;1.40;;;;;;;;;;5071430;28;20071;-73
2022/08/01 05:45:31;;;;;;;4.43;1.40;;;;;;;;;;5074047;28;20091;-73
2022/08/01 05:47:57;;;;;;;5.00;1.70;;;;;;;;;;5073776;28;20024;-75
2022/08/01 05:50:23;;;;;;;7.05;1.65;;;;;;;;;;5069779;28;20039;-73
2022/08/01 05:52:49;;;;;;;5.57;1.63;;;;;;;;;;5073092;28;20517;-73
2022/08/01 05:55:15;;;;;;;3.85;1.52;;;;;;;;;;5069604;28;20377;-73
2022/08/01 05:57:41;;;;;;;9.50;2.03;;;;;;;;;;5071880;28;20032;-73
2022/08/01 06:00:07;;;;;;;4.00;1.60;;;;;;;;;;5069411;22;21132;-73
2022/08/01 06:02:33;;;;;;;4.72;1.58;;;;;;;;;;5054980;28;20495;-73
2022/08/01 06:04:59;;;;;;;7.20;1.67;;;;;;;;;;5041540;28;20032;-73
2022/08/01 06:07:25;;;;;;;5.40;1.77;;;;;;;;;;5048705;28;20034;-73
2022/08/01 06:09:51;;;;;;;5.40;2.20;;;;;;;;;;5051222;28;20033;-73
2022/08/01 06:12:17;;;;;;;4.95;1.70;;;;;;;;;;5044627;28;20067;-73
2022/08/01 06:14:43;;;;;;;12.90;1.77;;;;;;;;;;5048325;28;20051;-73
2022/08/01 06:17:09;;;;;;;7.72;1.30;;;;;;;;;;5045605;28;20044;-73
2022/08/01 06:19:35;;;;;;;7.30;1.90;;;;;;;;;;5044632;28;20040;-73
2022/08/01 06:22:01;;;;;;;3.85;1.20;;;;;;;;;;5038060;28;20060;-73
2022/08/01 06:24:27;;;;;;;6.47;1.58;;;;;;;;;;5044061;28;20482;-73
2022/08/01 06:26:53;;;;;;;2.90;1.25;;;;;;;;;;5047123;28;20559;-73
2022/08/01 06:29:19;;;;;;;3.83;1.23;;;;;;;;;;5042562;28;20032;-73
2022/08/01 06:31:45;;;;;;;4.05;1.60;;;;;;;;;;5042625;28;20023;-73
2022/08/01 06:34:11;;;;;;;6.43;1.30;;;;;;;;;;5045683;28;20041;-73
2022/08/01 06:36:37;;;;;;;4.50;1.30;;;;;;;;;;5046047;28;20020;-73
2022/08/01 06:39:04;;;;;;;2.33;1.20;;;;;;;;;;5041489;28;20143;-73
2022/08/01 06:41:29;;;;;;;5.43;1.40;;;;;;;;;;5043300;28;20029;-73
2022/08/01 06:43:55;;;;;;;4.32;1.80;;;;;;;;;;5044885;28;20382;-73
2022/08/01 06:46:21;;;;;;;4.60;1.63;;;;;;;;;;5047736;28;20031;-73
2022/08/01 06:48:48;;;;;;;8.57;2.10;;;;;;;;;;5043124;28;20033;-73
2022/08/01 06:51:16;;;;;;;5.53;1.88;;;;;;;;;;5046359;28;20029;-73
2022/08/01 06:53:42;;;;;;;4.95;1.60;;;;;;;;;;5042770;28;20082;-73
2022/08/01 06:56:08;;;;;;;8.75;1.85;;;;;;;;;;5043342;28;20033;-73
2022/08/01 06:58:34;;;;;;;5.40;1.27;;;;;;;;;;5045218;28;20058;-73
2022/08/01 07:01:01;;;;;;;5.82;1.30;;;;;;;;;;5045931;28;20104;-73
2022/08/01 07:03:27;;;;;;;5.45;1.27;;;;;;;;;;5040976;28;20060;-73
2022/08/01 07:05:53;;;;;;;2.92;1.42;;;;;;;;;;5043518;28;20072;-73
2022/08/01 07:08:19;;;;;;;5.32;1.40;;;;;;;;;;5041581;28;20071;-73
2022/08/01 07:10:45;;;;;;;4.78;1.65;;;;;;;;;;5043452;28;20028;-73
2022/08/01 07:13:12;;;;;;;5.15;1.58;;;;;;;;;;5040828;28;20033;-73
2022/08/01 07:15:38;;;;;;;4.30;1.77;;;;;;;;;;5046741;28;20040;-73
2022/08/01 07:18:04;;;;;;;3.90;1.38;;;;;;;;;;5044299;28;20033;-73
2022/08/01 07:20:30;;;;;;;11.98;2.05;;;;;;;;;;5044505;28;20087;-73
2022/08/01 07:22:56;;;;;;;8.43;1.90;;;;;;;;;;5047423;28;20037;-73
2022/08/01 07:25:23;;;;;;;5.70;1.75;;;;;;;;;;5048156;28;20067;-73
2022/08/01 07:27:49;;;;;;;5.20;2.25;;;;;;;;;;5046317;28;20028;-73
2022/08/01 07:30:15;;;;;;;4.88;1.40;;;;;;;;;;5049725;28;20037;-73
2022/08/01 07:32:41;;;;;;;2.33;1.13;;;;;;;;;;5045486;28;20035;-73
2022/08/01 07:35:07;;;;;;;3.67;1.20;;;;;;;;;;5045571;28;20033;-73
2022/08/01 07:37:33;;;;;;;9.73;1.55;;;;;;;;;;5045837;28;20029;-73
2022/08/01 07:39:59;;;;;;;3.85;1.20;;;;;;;;;;5048559;28;20111;-73
2022/08/01 07:42:25;;;;;;;4.75;1.30;;;;;;;;;;5045439;28;20359;-73
2022/08/01 07:44:51;;;;;;;6.13;1.70;;;;;;;;;;5044417;28;20596;-73
2022/08/01 07:47:24;;;;;;;3.28;1.25;;;;;;;;;;5046616;28;20040;-73
2022/08/01 07:49:50;;;;;;;3.55;1.13;;;;;;;;;;5050861;28;20032;-73
2022/08/01 07:52:16;;;;;;;5.45;1.52;;;;;;;;;;5047834;28;20057;-73
2022/08/01 07:54:42;;;;;;;5.45;1.38;;;;;;;;;;5046473;28;20112;-73
2022/08/01 07:57:09;;;;;;;3.50;1.20;;;;;;;;;;5045728;28;20032;-73
2022/08/01 07:59:35;;;;;;;3.92;1.40;;;;;;;;;;5046058;28;20052;-73
2022/08/01 08:02:01;;;;;;;4.63;1.25;;;;;;;;;;5048532;28;20523;-73
2022/08/01 08:04:27;;;;;;;2.83;1.25;;;;;;;;;;5045827;28;20061;-73
2022/08/01 08:06:54;;;;;;;5.50;1.25;;;;;;;;;;5045971;28;20033;-73
2022/08/01 08:09:20;;;;;;;4.32;1.40;;;;;;;;;;5046955;28;20039;-73
2022/08/01 08:11:46;;;;;;;3.95;1.10;;;;;;;;;;5047748;28;20029;-73
2022/08/01 08:14:12;;;;;;;3.33;1.10;;;;;;;;;;5047289;28;20077;-73
2022/08/01 08:16:39;;;;;;;2.50;1.20;;;;;;;;;;5051917;28;20762;-73
2022/08/01 08:19:05;;;;;;;4.30;1.13;;;;;;;;;;5048950;28;20029;-73
2022/08/01 08:21:31;;;;;;;3.90;1.27;;;;;;;;;;5046876;28;20032;-73
2022/08/01 08:26:42;;;;;;;4.72;1.13;;;;;;;;;;5044423;28;20070;-73
2022/08/01 08:29:08;;;;;;;5.10;1.27;;;;;;;;;;5048962;28;20116;-73
2022/08/01 08:31:34;;;;;;;4.95;1.13;;;;;;;;;;5050245;28;20029;-73
2022/08/01 08:34:00;;;;;;;4.93;1.20;;;;;;;;;;5048810;28;20044;-73
2022/08/01 08:36:26;;;;;;;3.80;1.20;;;;;;;;;;5049727;28;20070;-73
2022/08/01 08:38:52;;;;;;;4.25;1.10;;;;;;;;;;5049433;28;20526;-73
2022/08/01 08:41:18;;;;;;;3.75;1.30;;;;;;;;;;5046766;28;20024;-73
2022/08/01 08:43:44;;;;;;;4.97;1.20;;;;;;;;;;5044235;28;20051;-73
2022/08/01 08:46:12;;;;;;;5.65;1.00;;;;;;;;;;5046103;28;20029;-73
2022/08/01 08:48:40;;;;;;;3.15;1.10;;;;;;;;;;5047852;28;20033;-73
2022/08/01 08:51:08;;;;;;;3.00;1.15;;;;;;;;;;5049491;28;20031;-73
2022/08/01 08:53:35;;;;;;;5.57;1.33;;;;;;;;;;5046814;28;20714;-73
2022/08/01 08:56:02;;;;;;;3.55;1.10;;;;;;;;;;5049836;28;20293;-73
2022/08/01 08:58:28;;;;;;;4.35;1.33;;;;;;;;;;5047840;28;20282;-73
2022/08/01 09:00:55;;;;;;;4.07;1.40;;;;;;;;;;5046826;28;20037;-73
2022/08/01 09:03:21;;;;;;;11.10;2.63;;;;;;;;;;5046684;28;20041;-73
2022/08/01 09:05:47;;;;;;;2.75;1.05;;;;;;;;;;5046472;28;20074;-73
2022/08/01 09:08:13;;;;;;;5.47;1.30;;;;;;;;;;5044218;28;20048;-73
2022/08/01 09:10:39;;;;;;;3.10;1.25;;;;;;;;;;5053052;28;20025;-73
2022/08/01 09:13:13;;;;;;;4.30;1.00;;;;;;;;;;5049060;28;20083;-73
2022/08/01 09:15:39;;;;;;;4.32;1.10;;;;;;;;;;5039415;28;20025;-73
2022/08/01 09:18:06;;;;;;;7.40;1.40;;;;;;;;;;5045699;28;20040;-73
2022/08/01 09:20:34;;;;;;;5.75;1.40;;;;;;;;;;5043321;28;20043;-73
2022/08/01 09:23:00;;;;;;;7.88;1.10;;;;;;;;;;5050052;28;20028;-73
2022/08/01 09:25:32;;;;;;;4.07;0.98;;;;;;;;;;5050831;28;20036;-73
2022/08/01 09:28:05;;;;;;;11.75;1.48;;;;;;;;;;5047722;28;20055;-73
2022/08/01 09:30:37;;;;;;;5.40;0.98;;;;;;;;;;5040967;28;20082;-73
2022/08/01 09:33:04;;;;;;;4.28;1.10;;;;;;;;;;5052947;28;20029;-73
2022/08/01 09:35:35;;;;;;;5.93;1.08;;;;;;;;;;5043944;28;20549;-73
2022/08/01 09:38:14;;;;;;;3.53;0.82;;;;;;;;;;5044749;28;20250;-73
2022/08/01 09:40:45;;;;;;;8.73;1.00;;;;;;;;;;5042210;28;20033;-73
2022/08/01 09:43:12;;;;;;;2.63;1.20;;;;;;;;;;5045319;28;20103;-73
2022/08/01 09:45:38;;;;;;;5.28;1.00;;;;;;;;;;5044447;28;20100;-73
2022/08/01 09:48:10;;;;;;;4.88;1.17;;;;;;;;;;5045566;28;20136;-73
2022/08/01 09:50:43;;;;;;;6.60;1.20;;;;;;;;;;5043229;28;20035;-73
2022/08/01 09:53:09;;;;;;;4.38;1.10;;;;;;;;;;5045060;28;20143;-73
2022/08/01 09:55:35;;;;;;;9.15;1.33;;;;;;;;;;5047301;28;20401;-73
2022/08/01 09:58:04;;;;;;;5.25;1.05;;;;;;;;;;5044791;28;20028;-73
2022/08/01 10:00:30;;;;;;;6.30;1.30;;;;;;;;;;5043372;28;20128;-73
2022/08/01 10:02:56;;;;;;;6.35;1.27;;;;;;;;;;5045835;28;20037;-73
2022/08/01 10:05:32;;;;;;;7.57;0.98;;;;;;;;;;5044518;28;20033;-73
2022/08/01 10:08:00;;;;;;;2.08;0.90;;;;;;;;;;5043305;28;20037;-73
2022/08/01 10:10:26;;;;;;;4.50;1.23;;;;;;;;;;5044732;28;20406;-73
2022/08/01 10:12:53;;;;;;;4.60;1.10;;;;;;;;;;5043265;28;20478;-74
2022/08/01 10:15:20;;;;;;;4.30;0.93;;;;;;;;;;5050604;28;20405;-74
2022/08/01 10:17:59;;;;;;;3.40;0.60;;;;;;;;;;5042243;28;20156;-74
2022/08/01 10:20:27;;;;;;;5.20;1.20;;;;;;;;;;5045825;28;20078;-74
2022/08/01 10:22:58;;;;;;;5.93;0.77;;;;;;;;;;5044033;28;20629;-74
2022/08/01 10:25:27;;;;;;;5.20;0.90;;;;;;;;;;5041455;28;20463;-74
2022/08/01 10:27:57;;;;;;;4.00;0.60;;;;;;;;;;5043700;28;20029;-74
2022/08/01 10:30:24;;;;;;;4.82;0.68;;;;;;;;;;5047179;28;20024;-73
2022/08/01 10:32:53;;;;;;;2.13;0.73;;;;;;;;;;5046097;28;20041;-73
2022/08/01 10:35:19;;;;;;;2.13;0.70;;;;;;;;;;5042185;28;20033;-73
2022/08/01 10:37:46;;;;;;;4.63;0.95;;;;;;;;;;5045916;28;20033;-73
2022/08/01 10:40:13;;;;;;;2.15;0.80;;;;;;;;;;5047619;28;20041;-73
2022/08/01 10:42:43;;;;;;;4.15;1.10;;;;;;;;;;5044505;28;20035;-73
2022/08/01 10:45:12;;;;;;;3.83;0.80;;;;;;;;;;5046510;28;20035;-73
2022/08/01 10:47:43;;;;;;;11.43;0.93;;;;;;;;;;5046786;28;20021;-73
2022/08/01 10:50:23;;;;;;;3.25;0.95;;;;;;;;;;5045562;28;20508;-73
2022/08/01 10:53:07;;;;;;;5.32;1.00;;;;;;;;;;5042623;28;20035;-73
2022/08/01 10:55:52;;;;;;;6.93;0.90;;;;;;;;;;5045757;28;20036;-73
2022/08/01 10:58:26;;;;;;;2.60;0.80;;;;;;;;;;5037728;28;20029;-73
2022/08/01 11:01:13;;;;;;;5.72;1.52;;;;;;;;;;5042428;28;20709;-74
2022/08/01 11:03:39;;;;;;;3.47;0.77;;;;;;;;;;5044908;28;20037;-74
2022/08/01 11:06:06;;;;;;;4.93;0.73;;;;;;;;;;5050151;28;20033;-74
2022/08/01 11:08:34;;;;;;;2.65;0.90;;;;;;;;;;5046116;28;20474;-74
2022/08/01 11:11:04;;;;;;;3.60;0.70;;;;;;;;;;5047416;28;20036;-74
2022/08/01 11:13:49;;;;;;;4.73;0.90;;;;;;;;;;5042943;28;20033;-74
2022/08/01 11:16:28;;;;;;;5.65;1.20;;;;;;;;;;5043887;28;20287;-74
2022/08/01 11:18:55;;;;;;;7.65;1.08;;;;;;;;;;5038727;28;20041;-74
2022/08/01 11:21:23;;;;;;;3.28;0.80;;;;;;;;;;5043391;28;20175;-74
2022/08/01 11:23:53;;;;;;;5.18;1.00;;;;;;;;;;5039926;28;20125;-74
2022/08/01 11:26:19;;;;;;;6.20;1.10;;;;;;;;;;5040908;28;20447;-74
2022/08/01 11:28:46;;;;;;;4.85;0.82;;;;;;;;;;5043617;28;20025;-74
2022/08/01 11:31:12;;;;;;;4.53;0.73;;;;;;;;;;5043381;28;20029;-74
2022/08/01 11:33:41;;;;;;;5.88;0.80;;;;;;;;;;5044077;28;20037;-74
2022/08/01 11:36:10;;;;;;;3.75;0.88;;;;;;;;;;5044877;28;20097;-74
2022/08/01 11:38:37;;;;;;;2.25;0.77;;;;;;;;;;5046592;28;20056;-74
2022/08/01 11:41:39;;;;;;;3.78;0.80;;;;;;;;;;5042181;28;20661;-74
2022/08/01 11:44:08;;;;;;;5.43;0.80;;;;;;;;;;4980241;28;20038;-73
2022/08/01 11:47:12;;;;;;;5.88;0.93;;;;;;;;;;5035892;28;20056;-73
2022/08/01 11:49:40;;;;;;;2.15;0.68;;;;;;;;;;4980144;28;20587;-74
2022/08/01 11:52:06;;;;;;;5.32;1.02;;;;;;;;;;5033111;28;20045;-74
2022/08/01 11:54:34;;;;;;;7.10;0.77;;;;;;;;;;5046629;28;20090;-74
2022/08/01 11:57:01;;;;;;;3.30;0.90;;;;;;;;;;5041674;28;20558;-74
2022/08/01 11:59:27;;;;;;;6.30;1.05;;;;;;;;;;5051692;28;20179;-74
2022/08/01 12:01:53;;;;;;;3.38;0.80;;;;;;;;;;5040219;28;20045;-74
2022/08/01 12:04:20;;;;;;;5.28;0.93;;;;;;;;;;5049477;28;20033;-74
2022/08/01 12:06:46;;;;;;;17.05;1.70;;;;;;;;;;5039857;28;20104;-74
2022/08/01 12:09:16;;;;;;;10.15;1.10;;;;;;;;;;5044961;28;20064;-74
2022/08/01 12:11:42;;;;;;;7.40;1.42;;;;;;;;;;5050463;28;20040;-74
2022/08/01 12:14:08;;;;;;;6.82;0.80;;;;;;;;;;5044366;28;20035;-74
2022/08/01 12:16:34;;;;;;;3.38;0.80;;;;;;;;;;5045959;28;20104;-74
2022/08/01 12:19:01;;;;;;;7.13;1.00;;;;;;;;;;5043774;28;20033;-74
2022/08/01 12:21:27;;;;;;;7.75;1.08;;;;;;;;;;5045551;28;20112;-74
2022/08/01 12:24:03;;;;;;;5.40;0.85;;;;;;;;;;5046107;28;20101;-74
2022/08/01 12:26:42;;;;;;;5.65;0.70;;;;;;;;;;5046638;28;20458;-74
2022/08/01 12:29:08;;;;;;;4.38;0.90;;;;;;;;;;5050745;28;20453;-74
2022/08/01 12:31:34;;;;;;;2.22;0.70;;;;;;;;;;5047376;28;20036;-73
2022/08/01 12:34:19;;;;;;;4.22;0.88;;;;;;;;;;5048065;28;20055;-73
2022/08/01 12:36:46;;;;;;;4.20;1.00;;;;;;;;;;5044041;28;20041;-73
2022/08/01 12:39:12;;;;;;;4.22;0.80;;;;;;;;;;5048915;28;20381;-74
2022/08/01 12:41:38;;;;;;;2.88;0.82;;;;;;;;;;5045278;28;20107;-74
2022/08/01 12:44:13;;;;;;;5.13;1.00;;;;;;;;;;5048976;28;20033;-74
2022/08/01 12:46:39;;;;;;;2.90;0.65;;;;;;;;;;5048249;28;20421;-74
2022/08/01 12:49:05;;;;;;;3.53;0.73;;;;;;;;;;5054226;28;20032;-74
2022/08/01 12:51:31;;;;;;;4.10;0.70;;;;;;;;;;5047829;28;20029;-74
2022/08/01 12:54:01;;;;;;;2.28;0.80;;;;;;;;;;5049190;28;20049;-74
2022/08/01 12:56:33;;;;;;;5.03;0.80;;;;;;;;;;5045079;28;20393;-74
2022/08/01 12:59:00;;;;;;;3.25;0.80;;;;;;;;;;5052923;28;20080;-74
2022/08/01 13:01:26;;;;;;;5.43;0.60;;;;;;;;;;5044787;28;20033;-74
2022/08/01 13:04:04;;;;;;;2.95;0.60;;;;;;;;;;5042675;28;20044;-74
2022/08/01 13:06:30;;;;;;;5.80;0.52;;;;;;;;;;5050177;28;20161;-74
2022/08/01 13:09:05;;;;;;;5.28;0.45;;;;;;;;;;5046843;28;20034;-74
2022/08/01 13:11:31;;;;;;;2.80;0.57;;;;;;;;;;5046640;28;20028;-74
2022/08/01 13:13:57;;;;;;;2.55;0.65;;;;;;;;;;5045661;28;20032;-73
2022/08/01 13:16:25;;;;;;;2.55;0.50;;;;;;;;;;5046608;28;20060;-73
2022/08/01 13:18:55;;;;;;;2.15;0.52;;;;;;;;;;5048096;28;20075;-74
2022/08/01 13:21:22;;;;;;;1.25;0.40;;;;;;;;;;5045056;28;20530;-74
2022/08/01 13:24:03;;;;;;;1.55;0.47;;;;;;;;;;5046286;28;20394;-74
2022/08/01 13:26:41;;;;;;;2.50;0.50;;;;;;;;;;5043219;28;20036;-74
2022/08/01 13:29:08;;;;;;;5.00;0.70;;;;;;;;;;5042720;28;20029;-74
2022/08/01 13:31:38;;;;;;;6.40;0.90;;;;;;;;;;5047897;28;20527;-74
2022/08/01 13:34:04;;;;;;;18.75;1.98;;;;;;;;;;5045035;28;20489;-74
2022/08/01 13:36:30;;;;;;;8.02;0.70;;;;;;;;;;5047239;28;20486;-74
2022/08/01 13:41:42;;;;;;;4.80;0.60;;;;;;;;;;5043114;28;20147;-74
2022/08/01 13:44:10;;;;;;;1.58;0.50;;;;;;;;;;5046062;28;20119;-74
2022/08/01 13:46:36;;;;;;;2.88;0.60;;;;;;;;;;5050442;28;20021;-74
2022/08/01 13:49:03;;;;;;;28.27;2.42;;;;;;;;;;5046900;28;20033;-74
2022/08/01 13:51:29;;;;;;;4.10;0.50;;;;;;;;;;5046338;28;20115;-74
2022/08/01 13:53:55;;;;;;;1.17;0.50;;;;;;;;;;5049783;28;20034;-74
2022/08/01 13:56:21;;;;;;;6.07;0.50;;;;;;;;;;5039876;28;20426;-73
2022/08/01 13:58:47;;;;;;;6.72;0.60;;;;;;;;;;5042596;28;20410;-74
2022/08/01 14:01:13;;;;;;;4.95;0.85;;;;;;;;;;5049922;28;20041;-74
2022/08/01 14:03:40;;;;;;;1.95;0.40;;;;;;;;;;5047816;28;20078;-73
2022/08/01 14:06:06;;;;;;;12.25;0.60;;;;;;;;;;5044391;28;20065;-73
2022/08/01 14:08:32;;;;;;;1.63;0.50;;;;;;;;;;5046861;28;20025;-74
2022/08/01 14:10:58;;;;;;;6.00;0.70;;;;;;;;;;5044635;28;20024;-74
2022/08/01 14:13:28;;;;;;;1.90;0.50;;;;;;;;;;5047481;28;20040;-74
2022/08/01 14:15:54;;;;;;;1.52;0.57;;;;;;;;;;5046075;28;20036;-74
2022/08/01 14:18:20;;;;;;;1.30;0.40;;;;;;;;;;5046184;28;20177;-74
2022/08/01 14:20:46;;;;;;;4.97;0.47;;;;;;;;;;5042928;28;20417;-74
2022/08/01 14:23:12;;;;;;;1.60;0.55;;;;;;;;;;5045535;28;20032;-73
2022/08/01 14:25:39;;;;;;;4.80;0.60;;;;;;;;;;5044320;28;20485;-73
2022/08/01 14:28:05;;;;;;;4.18;0.50;;;;;;;;;;5043646;28;20028;-73
2022/08/01 14:30:32;;;;;;;3.45;0.47;;;;;;;;;;5044248;28;20022;-73
2022/08/01 14:32:59;;;;;;;2.40;0.60;;;;;;;;;;5045353;28;20044;-73
2022/08/01 14:35:25;;;;;;;2.65;0.70;;;;;;;;;;5047064;28;20102;-73
2022/08/01 14:37:51;;;;;;;3.85;0.50;;;;;;;;;;5044771;28;20090;-73
2022/08/01 14:40:17;;;;;;;3.28;0.70;;;;;;;;;;5046194;28;20082;-73
2022/08/01 14:42:44;;;;;;;0.77;0.43;;;;;;;;;;5045862;28;20043;-73
2022/08/01 14:45:10;;;;;;;1.60;0.57;;;;;;;;;;5048001;28;20119;-73
2022/08/01 14:47:37;;;;;;;2.70;0.73;;;;;;;;;;5044906;28;20426;-73
2022/08/01 14:50:05;;;;;;;6.55;0.50;;;;;;;;;;5046367;28;20455;-73
2022/08/01 14:52:31;;;;;;;1.85;0.50;;;;;;;;;;5042304;28;20039;-73
2022/08/01 14:54:57;;;;;;;2.03;0.50;;;;;;;;;;5042990;28;20470;-73
2022/08/01 14:57:23;;;;;;;5.75;0.63;;;;;;;;;;5043500;28;20039;-73
2022/08/01 14:59:49;;;;;;;2.17;0.50;;;;;;;;;;5045586;28;20144;-74